Time;durP1;ratioP1;P1;durP2;ratioP2;P2;SDS_P1;SDS_P2;PMS_P1;PMS_P2;Temp;Humidity;BMP_temperature;BMP_pressure;BME280_temperature;BME280_humidity;BME280_pressure;Samples;Min_cycle;Max_cycle;Signal;HPM_P1;HPM_P2
2023/05/11 00:02:07;;;;;;;6.28;2.92;;;14.70;99.90;;;;;;5032109;28;20033;-80
2023/05/11 00:04:33;;;;;;;7.10;3.35;;;14.70;99.90;;;;;;5032321;28;20079;-79
2023/05/11 00:06:59;;;;;;;9.20;3.08;;;14.70;99.90;;;;;;5031834;28;20079;-81
2023/05/11 00:09:25;;;;;;;5.97;3.05;;;14.70;99.90;;;;;;5032184;28;20046;-81
2023/05/11 00:11:52;;;;;;;6.07;3.47;;;14.80;99.90;;;;;;5031755;28;20495;-79
2023/05/11 00:14:18;;;;;;;7.20;3.38;;;14.80;99.90;;;;;;5032079;28;20037;-80
2023/05/11 00:16:43;;;;;;;4.50;2.85;;;14.80;99.90;;;;;;5032043;28;20018;-78
2023/05/11 00:19:09;;;;;;;12.45;4.75;;;14.80;99.90;;;;;;5030951;28;20034;-74
2023/05/11 00:21:35;;;;;;;6.93;2.63;;;14.70;99.90;;;;;;5029840;28;20033;-81
2023/05/11 00:24:01;;;;;;;5.22;2.45;;;14.80;99.90;;;;;;5031997;28;20072;-74
2023/05/11 00:26:27;;;;;;;9.13;3.10;;;14.70;99.90;;;;;;5031694;28;20029;-76
2023/05/11 00:28:52;;;;;;;9.38;3.42;;;14.80;99.90;;;;;;5031628;28;20017;-80
2023/05/11 00:31:19;;;;;;;6.53;3.38;;;14.80;99.90;;;;;;5031846;28;20116;-78
2023/05/11 00:33:45;;;;;;;6.00;3.30;;;14.80;99.90;;;;;;5031185;28;20032;-75
2023/05/11 00:36:11;;;;;;;5.15;2.72;;;14.70;99.90;;;;;;5032414;28;20037;-80
2023/05/11 00:38:39;;;;;;;5.25;3.17;;;14.70;99.90;;;;;;5030736;28;20393;-80
2023/05/11 00:41:06;;;;;;;7.70;3.05;;;14.70;99.90;;;;;;5030606;28;20029;-75
2023/05/11 00:43:32;;;;;;;7.68;3.80;;;14.70;99.90;;;;;;5046871;28;20389;-74
2023/05/11 00:45:58;;;;;;;6.63;3.20;;;14.70;99.90;;;;;;5030749;28;20038;-74
2023/05/11 00:48:23;;;;;;;7.45;3.20;;;14.70;99.90;;;;;;5031836;28;20036;-77
2023/05/11 00:50:49;;;;;;;5.97;3.38;;;14.70;99.90;;;;;;5031500;28;20091;-81
2023/05/11 00:53:15;;;;;;;7.05;3.25;;;14.70;99.90;;;;;;5031973;28;20097;-82
2023/05/11 00:55:42;;;;;;;6.30;3.85;;;14.70;99.90;;;;;;5030908;28;20504;-82
2023/05/11 00:58:07;;;;;;;6.03;3.53;;;14.60;99.90;;;;;;5031824;28;20595;-75
2023/05/11 01:00:33;;;;;;;5.97;3.70;;;14.70;99.90;;;;;;5031791;28;20049;-78
2023/05/11 01:03:00;;;;;;;6.15;3.47;;;14.60;99.90;;;;;;5042808;28;20018;-76
2023/05/11 01:05:40;;;;;;;6.82;3.72;;;14.60;99.90;;;;;;5040053;28;20029;-81
2023/05/11 01:08:14;;;;;;;7.07;3.20;;;14.60;99.90;;;;;;5034928;28;20053;-74
2023/05/11 01:11:07;;;;;;;6.93;3.33;;;14.60;99.90;;;;;;5030320;28;20037;-77
2023/05/11 01:13:41;;;;;;;8.10;4.03;;;14.60;99.90;;;;;;5014375;28;20022;-80
2023/05/11 01:16:23;;;;;;;5.57;3.17;;;14.60;99.90;;;;;;5015201;28;20038;-79
2023/05/11 01:19:02;;;;;;;6.07;3.72;;;14.60;99.90;;;;;;5016430;28;20030;-83
2023/05/11 01:21:32;;;;;;;6.57;3.92;;;14.60;99.90;;;;;;5012336;28;20049;-82
2023/05/11 01:24:20;;;;;;;7.38;3.35;;;14.60;99.90;;;;;;5013640;28;20169;-80
2023/05/11 01:27:25;;;;;;;7.82;3.88;;;14.60;99.90;;;;;;5029372;28;20025;-80
2023/05/11 01:30:22;;;;;;;8.95;3.42;;;14.60;99.90;;;;;;5013072;28;20103;-82
2023/05/11 01:32:48;;;;;;;7.18;3.65;;;14.50;99.90;;;;;;5024326;28;20069;-80
2023/05/11 01:35:19;;;;;;;6.72;3.97;;;14.50;99.90;;;;;;5034650;28;20064;-80
2023/05/11 01:37:55;;;;;;;7.13;3.63;;;14.50;99.90;;;;;;5038227;28;20385;-80
2023/05/11 01:40:26;;;;;;;5.22;3.15;;;14.50;99.90;;;;;;5035023;28;20117;-83
2023/05/11 01:43:06;;;;;;;7.65;3.42;;;14.50;99.90;;;;;;5034821;28;20033;-81
2023/05/11 01:45:37;;;;;;;11.95;3.47;;;14.60;99.90;;;;;;5035199;28;20029;-82
2023/05/11 01:48:08;;;;;;;4.90;3.22;;;14.50;99.90;;;;;;5017240;28;20036;-81
2023/05/11 01:50:36;;;;;;;8.13;3.17;;;14.50;99.90;;;;;;5034998;28;20111;-80
2023/05/11 01:53:03;;;;;;;6.18;3.05;;;14.50;99.90;;;;;;5043109;28;20021;-81
2023/05/11 01:55:34;;;;;;;7.53;3.17;;;14.50;99.90;;;;;;5034589;28;20416;-83
2023/05/11 01:58:02;;;;;;;8.57;3.38;;;14.50;99.90;;;;;;5033427;28;20128;-82
2023/05/11 02:00:30;;;;;;;6.72;3.50;;;14.60;99.90;;;;;;5033568;28;20033;-83
2023/05/11 02:02:59;;;;;;;5.60;3.15;;;14.60;99.90;;;;;;5034449;28;20381;-79
2023/05/11 02:05:28;;;;;;;5.45;3.30;;;14.60;99.90;;;;;;5049287;28;20109;-81
2023/05/11 02:07:56;;;;;;;6.50;3.47;;;14.50;99.90;;;;;;5033051;28;20056;-83
2023/05/11 02:10:25;;;;;;;6.43;3.05;;;14.50;99.90;;;;;;5034454;28;20136;-83
2023/05/11 02:12:52;;;;;;;6.22;3.90;;;14.50;99.90;;;;;;5034242;28;20087;-81
2023/05/11 02:15:22;;;;;;;5.30;2.83;;;14.50;99.90;;;;;;5033031;28;20029;-82
2023/05/11 02:17:50;;;;;;;7.47;3.47;;;14.50;99.90;;;;;;5034275;28;20485;-74
2023/05/11 02:20:17;;;;;;;7.13;3.25;;;14.50;99.90;;;;;;5033389;28;20032;-80
2023/05/11 02:22:44;;;;;;;5.30;3.05;;;14.50;99.90;;;;;;5033533;28;20029;-81
2023/05/11 02:25:11;;;;;;;5.90;3.50;;;14.50;99.90;;;;;;5032442;28;20099;-76
2023/05/11 02:27:38;;;;;;;7.57;3.70;;;14.50;99.90;;;;;;5034114;28;20105;-81
2023/05/11 02:30:07;;;;;;;6.05;3.70;;;14.50;99.90;;;;;;5032177;28;20053;-82
2023/05/11 02:32:37;;;;;;;6.15;3.42;;;14.50;99.90;;;;;;5032778;28;20025;-81
2023/05/11 02:35:15;;;;;;;8.05;3.50;;;14.50;99.90;;;;;;5032478;28;20599;-80
2023/05/11 02:37:45;;;;;;;8.85;2.95;;;14.50;99.90;;;;;;5034030;28;20133;-81
2023/05/11 02:40:16;;;;;;;5.68;3.25;;;14.50;99.90;;;;;;5032372;28;20028;-82
2023/05/11 02:42:45;;;;;;;9.98;3.78;;;14.50;99.90;;;;;;5032307;28;20127;-81
2023/05/11 02:45:14;;;;;;;7.68;3.95;;;14.50;99.90;;;;;;5032863;28;20397;-79
2023/05/11 02:48:04;;;;;;;6.45;3.65;;;14.50;99.90;;;;;;5034054;28;20028;-79
2023/05/11 02:50:35;;;;;;;9.15;3.90;;;14.50;99.90;;;;;;5052970;28;20115;-83
2023/05/11 02:53:05;;;;;;;5.78;3.38;;;14.50;99.90;;;;;;5020705;28;20028;-81
2023/05/11 02:55:31;;;;;;;6.47;3.50;;;14.50;99.90;;;;;;5032470;28;20030;-75
2023/05/11 02:57:59;;;;;;;7.30;3.42;;;14.50;99.90;;;;;;5032676;28;20029;-79
2023/05/11 03:00:26;;;;;;;6.80;3.45;;;14.50;99.90;;;;;;5031902;28;20030;-81
2023/05/11 03:02:52;;;;;;;6.47;3.55;;;14.50;99.90;;;;;;5049033;28;20064;-83
2023/05/11 03:05:20;;;;;;;5.72;3.40;;;14.50;99.90;;;;;;5048370;28;20124;-80
2023/05/11 03:07:46;;;;;;;6.55;3.30;;;14.50;99.90;;;;;;5033506;28;20056;-82
2023/05/11 03:10:13;;;;;;;6.75;4.00;;;14.40;99.90;;;;;;5030974;28;20033;-76
2023/05/11 03:12:42;;;;;;;8.73;3.50;;;14.40;99.90;;;;;;5031817;28;20473;-78
2023/05/11 03:15:11;;;;;;;6.00;3.35;;;14.40;99.90;;;;;;5033179;28;20041;-77
2023/05/11 03:17:39;;;;;;;6.65;3.88;;;14.40;99.90;;;;;;5031656;28;20083;-80
2023/05/11 03:20:07;;;;;;;6.07;2.97;;;14.40;99.90;;;;;;5031511;28;20040;-77
2023/05/11 03:22:35;;;;;;;8.68;3.55;;;14.40;99.90;;;;;;5031464;28;20025;-82
2023/05/11 03:25:03;;;;;;;6.88;3.42;;;14.40;99.90;;;;;;5032997;28;20055;-79
2023/05/11 03:27:32;;;;;;;9.80;4.05;;;14.40;99.90;;;;;;5031553;28;20021;-80
2023/05/11 03:30:01;;;;;;;7.57;4.20;;;14.40;99.90;;;;;;5031726;28;20049;-75
2023/05/11 03:32:32;;;;;;;7.07;3.47;;;14.60;99.90;;;;;;5031308;28;20120;-81
2023/05/11 03:35:00;;;;;;;9.10;3.60;;;14.50;99.90;;;;;;5030783;28;20443;-77
2023/05/11 03:37:29;;;;;;;6.93;3.40;;;14.50;99.90;;;;;;5031743;28;20032;-79
2023/05/11 03:39:58;;;;;;;9.55;3.97;;;14.40;99.90;;;;;;5031044;28;20148;-83
2023/05/11 03:42:26;;;;;;;8.15;3.50;;;14.40;99.90;;;;;;5024473;28;21026;-75
2023/05/11 03:44:57;;;;;;;8.80;3.90;;;14.40;99.90;;;;;;5032409;28;20040;-76
2023/05/11 03:47:26;;;;;;;8.25;3.78;;;14.40;99.90;;;;;;5032507;28;20118;-84
2023/05/11 03:49:55;;;;;;;5.15;3.20;;;14.40;99.90;;;;;;5029894;28;20103;-83
2023/05/11 03:52:23;;;;;;;8.27;3.83;;;14.40;99.90;;;;;;5027813;28;20116;-79
2023/05/11 03:54:49;;;;;;;8.57;3.83;;;14.40;99.90;;;;;;5018939;28;20033;-78
2023/05/11 03:57:15;;;;;;;7.93;3.95;;;14.40;99.90;;;;;;5028734;28;20083;-81
2023/05/11 03:59:41;;;;;;;8.25;3.60;;;14.40;99.90;;;;;;5024698;28;20037;-80
2023/05/11 04:02:08;;;;;;;8.07;3.90;;;14.40;99.90;;;;;;5031433;28;20040;-82
2023/05/11 04:04:34;;;;;;;6.65;3.47;;;14.40;99.90;;;;;;5030784;28;20108;-81
2023/05/11 04:07:00;;;;;;;6.25;3.63;;;14.40;99.90;;;;;;5023230;28;20101;-81
2023/05/11 04:09:26;;;;;;;8.80;4.28;;;14.40;99.90;;;;;;5031050;28;20469;-80
2023/05/11 04:11:52;;;;;;;6.20;4.15;;;14.40;99.90;;;;;;5037968;28;20080;-77
2023/05/11 04:14:19;;;;;;;11.45;3.75;;;14.40;99.90;;;;;;5023572;28;20045;-76
2023/05/11 04:16:45;;;;;;;6.80;3.88;;;14.40;99.90;;;;;;5031990;28;20029;-80
2023/05/11 04:19:11;;;;;;;8.18;4.43;;;14.40;99.90;;;;;;5018986;28;20155;-78
2023/05/11 04:21:37;;;;;;;8.98;3.50;;;14.40;99.90;;;;;;5031030;28;20108;-81
2023/05/11 04:24:03;;;;;;;7.13;4.32;;;14.50;99.90;;;;;;5031770;28;20067;-79
2023/05/11 04:26:28;;;;;;;6.68;3.67;;;14.50;99.90;;;;;;5031874;28;20033;-78
2023/05/11 04:28:54;;;;;;;11.30;4.25;;;14.50;99.90;;;;;;5030425;28;20112;-79
2023/05/11 04:31:20;;;;;;;8.82;4.47;;;14.50;99.90;;;;;;5031788;28;20041;-79
2023/05/11 04:33:47;;;;;;;7.57;4.47;;;14.50;99.90;;;;;;5030461;28;20469;-80
2023/05/11 04:36:13;;;;;;;8.27;4.18;;;14.50;99.90;;;;;;5030203;28;20393;-80
2023/05/11 04:38:39;;;;;;;7.30;3.88;;;14.50;99.90;;;;;;5031994;28;20036;-81
2023/05/11 04:41:07;;;;;;;7.70;4.00;;;14.50;99.90;;;;;;5046995;28;20029;-78
2023/05/11 04:43:34;;;;;;;9.32;4.35;;;14.50;99.90;;;;;;5034013;28;20079;-80
2023/05/11 04:46:00;;;;;;;9.20;4.10;;;14.60;99.90;;;;;;5033940;28;20049;-80
2023/05/11 04:48:27;;;;;;;11.05;4.05;;;14.60;99.90;;;;;;5051028;28;20025;-76
2023/05/11 04:50:54;;;;;;;6.68;3.58;;;14.70;99.90;;;;;;5050716;28;20124;-78
2023/05/11 04:53:22;;;;;;;7.03;4.40;;;14.70;99.90;;;;;;5034052;28;20022;-81
2023/05/11 04:55:48;;;;;;;7.82;3.90;;;14.70;99.90;;;;;;5034227;28;20033;-81
2023/05/11 04:58:14;;;;;;;8.07;3.63;;;14.80;99.90;;;;;;5032488;28;20112;-80
2023/05/11 05:00:40;;;;;;;7.57;3.58;;;14.80;99.90;;;;;;5035658;28;20025;-76
2023/05/11 05:03:06;;;;;;;4.80;3.70;;;14.80;99.90;;;;;;5033915;28;20029;-80
2023/05/11 05:05:32;;;;;;;8.43;4.30;;;14.90;99.90;;;;;;5034262;28;20037;-78
2023/05/11 05:07:58;;;;;;;8.90;4.22;;;15.00;99.90;;;;;;5032858;28;20037;-81
2023/05/11 05:10:24;;;;;;;8.65;4.78;;;15.00;99.90;;;;;;5048129;28;20033;-78
2023/05/11 05:12:50;;;;;;;9.98;4.43;;;15.10;99.90;;;;;;5034946;28;20386;-76
2023/05/11 05:15:16;;;;;;;9.90;3.53;;;15.00;99.90;;;;;;5034587;28;20021;-77
2023/05/11 05:17:42;;;;;;;8.98;4.53;;;15.10;99.90;;;;;;5049835;28;20531;-78
2023/05/11 05:20:08;;;;;;;6.47;4.20;;;15.10;99.90;;;;;;5033731;28;20025;-77
2023/05/11 05:22:34;;;;;;;7.93;4.28;;;15.10;99.90;;;;;;5035021;28;20052;-76
2023/05/11 05:25:01;;;;;;;7.03;3.75;;;15.10;99.90;;;;;;5049408;28;20170;-79
2023/05/11 05:27:28;;;;;;;12.27;4.78;;;15.20;99.90;;;;;;5033656;28;20405;-80
2023/05/11 05:29:54;;;;;;;10.73;4.20;;;15.20;99.90;;;;;;5049894;28;20030;-80
2023/05/11 05:32:23;;;;;;;7.20;4.78;;;15.10;99.90;;;;;;5033792;28;20179;-79
2023/05/11 05:34:48;;;;;;;14.45;4.20;;;15.20;99.90;;;;;;5049502;28;20072;-76
2023/05/11 05:37:14;;;;;;;8.60;4.25;;;15.20;99.90;;;;;;5032689;28;20022;-79
2023/05/11 05:39:40;;;;;;;6.95;3.97;;;15.20;99.90;;;;;;5032659;28;20029;-76
2023/05/11 05:42:06;;;;;;;6.57;4.15;;;15.10;99.90;;;;;;5049978;28;20044;-77
2023/05/11 05:44:32;;;;;;;7.20;4.50;;;15.20;99.90;;;;;;5033257;28;20041;-77
2023/05/11 05:46:58;;;;;;;6.80;4.05;;;15.20;99.90;;;;;;5033718;28;20021;-76
2023/05/11 05:49:28;;;;;;;6.53;4.05;;;15.20;99.90;;;;;;5049415;28;20128;-77
2023/05/11 05:51:54;;;;;;;7.00;4.22;;;15.20;99.90;;;;;;5034204;28;20117;-76
2023/05/11 05:54:20;;;;;;;11.13;4.90;;;15.10;99.90;;;;;;5032071;28;20088;-77
2023/05/11 05:56:47;;;;;;;7.05;4.43;;;15.10;99.90;;;;;;5049466;28;20171;-77
2023/05/11 05:59:13;;;;;;;11.88;5.82;;;15.20;99.90;;;;;;5033043;28;20080;-79
2023/05/11 06:01:44;;;;;;;9.23;4.75;;;15.10;99.90;;;;;;5034409;28;20109;-76
2023/05/11 06:04:14;;;;;;;11.27;5.00;;;15.20;99.90;;;;;;5032777;28;20511;-77
2023/05/11 06:06:40;;;;;;;9.18;4.75;;;15.20;99.90;;;;;;5033146;28;20434;-76
2023/05/11 06:09:06;;;;;;;7.95;4.95;;;15.20;99.90;;;;;;5032298;28;20073;-80
2023/05/11 06:11:32;;;;;;;10.57;4.65;;;15.10;99.90;;;;;;5033835;28;20114;-80
2023/05/11 06:13:58;;;;;;;10.00;4.93;;;15.10;99.90;;;;;;5015899;28;20037;-77
2023/05/11 06:16:25;;;;;;;8.93;5.10;;;15.10;99.90;;;;;;5031150;28;20028;-75
2023/05/11 06:18:51;;;;;;;6.90;4.13;;;15.10;99.90;;;;;;5031459;28;20025;-78
2023/05/11 06:21:17;;;;;;;13.07;5.55;;;15.10;99.90;;;;;;5034657;28;20025;-76
2023/05/11 06:23:43;;;;;;;9.30;4.70;;;15.10;99.90;;;;;;5032634;28;20025;-75
2023/05/11 06:26:09;;;;;;;11.48;4.72;;;15.20;99.90;;;;;;5049291;28;20059;-76
2023/05/11 06:28:35;;;;;;;10.48;4.97;;;15.20;99.90;;;;;;5031557;28;20025;-79
2023/05/11 06:31:04;;;;;;;9.50;5.32;;;15.20;99.90;;;;;;5032565;28;20037;-80
2023/05/11 06:33:34;;;;;;;9.00;4.53;;;15.20;99.90;;;;;;5048750;28;20022;-76
2023/05/11 06:36:06;;;;;;;11.90;5.03;;;15.30;99.90;;;;;;5048540;28;20121;-76
2023/05/11 06:38:34;;;;;;;9.25;5.20;;;15.30;99.90;;;;;;5032181;28;20025;-79
2023/05/11 06:41:00;;;;;;;10.88;4.93;;;15.50;99.90;;;;;;5048236;28;20112;-79
2023/05/11 06:43:26;;;;;;;9.93;5.53;;;15.40;99.90;;;;;;5033224;28;20187;-76
2023/05/11 06:45:52;;;;;;;12.38;6.28;;;15.50;99.90;;;;;;5032072;28;20021;-78
2023/05/11 06:48:22;;;;;;;8.98;5.53;;;15.60;99.90;;;;;;5015873;28;20124;-75
2023/05/11 06:50:48;;;;;;;11.93;6.05;;;15.60;99.90;;;;;;5033252;28;20038;-78
2023/05/11 06:53:15;;;;;;;13.02;6.15;;;15.60;99.90;;;;;;5032022;28;20037;-78
2023/05/11 06:55:41;;;;;;;9.95;4.85;;;15.70;99.90;;;;;;5032243;28;20094;-81
2023/05/11 06:58:07;;;;;;;11.00;5.38;;;15.60;99.90;;;;;;5032922;28;20021;-78
2023/05/11 07:00:33;;;;;;;9.80;5.55;;;15.80;99.90;;;;;;5031925;28;20033;-77
2023/05/11 07:02:59;;;;;;;15.40;6.53;;;16.00;99.90;;;;;;5032301;28;20069;-77
2023/05/11 07:05:25;;;;;;;11.65;5.18;;;16.10;99.90;;;;;;5026762;28;20033;-78
2023/05/11 07:07:50;;;;;;;10.73;5.47;;;16.40;99.90;;;;;;5032641;28;20164;-76
2023/05/11 07:10:16;;;;;;;8.73;4.85;;;16.50;99.90;;;;;;5032200;28;20033;-80
2023/05/11 07:12:42;;;;;;;12.85;5.63;;;16.60;99.90;;;;;;5031000;28;20033;-76
2023/05/11 07:15:08;;;;;;;9.50;5.38;;;16.60;99.90;;;;;;5032425;28;20033;-80
2023/05/11 07:17:34;;;;;;;11.05;4.85;;;16.70;99.90;;;;;;5033126;28;20075;-80
2023/05/11 07:20:00;;;;;;;8.93;4.93;;;16.90;99.90;;;;;;5032707;28;20029;-75
2023/05/11 07:22:26;;;;;;;11.30;5.78;;;16.90;99.90;;;;;;5028478;28;20045;-80
2023/05/11 07:24:51;;;;;;;20.30;5.80;;;17.10;99.90;;;;;;5032517;28;20026;-75
2023/05/11 07:27:17;;;;;;;7.45;4.63;;;17.00;99.90;;;;;;5032938;28;20013;-76
2023/05/11 07:29:43;;;;;;;9.80;4.85;;;17.20;99.90;;;;;;5031258;28;20033;-75
2023/05/11 07:32:09;;;;;;;8.88;5.70;;;17.20;99.60;;;;;;5032841;28;20018;-78
2023/05/11 07:34:35;;;;;;;17.90;6.07;;;17.20;99.40;;;;;;5031294;28;20033;-77
2023/05/11 07:37:01;;;;;;;17.20;5.63;;;16.90;99.40;;;;;;5032779;28;20100;-76
2023/05/11 07:39:27;;;;;;;14.40;6.35;;;16.70;99.90;;;;;;5032610;28;20553;-79
2023/05/11 07:41:52;;;;;;;15.93;5.55;;;16.60;99.60;;;;;;5032559;28;20104;-78
2023/05/11 07:44:18;;;;;;;10.40;5.28;;;16.60;99.90;;;;;;5032239;28;20034;-74
2023/05/11 07:46:44;;;;;;;11.82;5.55;;;16.60;99.90;;;;;;5031689;28;20113;-78
2023/05/11 07:49:10;;;;;;;16.45;5.20;;;16.60;99.90;;;;;;5032265;28;20041;-76
2023/05/11 07:51:36;;;;;;;9.43;5.10;;;16.60;99.90;;;;;;5032216;28;20033;-76
2023/05/11 07:54:02;;;;;;;8.52;5.45;;;16.60;99.90;;;;;;5032337;28;20477;-78
2023/05/11 07:56:28;;;;;;;8.63;4.78;;;16.70;99.90;;;;;;5030906;28;20115;-80
2023/05/11 07:58:54;;;;;;;13.68;5.07;;;16.60;99.90;;;;;;5032311;28;20053;-81
2023/05/11 08:01:20;;;;;;;11.73;5.60;;;16.50;99.90;;;;;;5032325;28;20043;-78
2023/05/11 08:03:46;;;;;;;12.00;4.53;;;16.40;99.90;;;;;;5031751;28;20021;-75
2023/05/11 08:06:12;;;;;;;18.30;5.80;;;16.30;99.90;;;;;;5031735;28;20155;-76
2023/05/11 08:08:38;;;;;;;11.13;5.30;;;16.40;99.90;;;;;;5031570;28;20116;-77
2023/05/11 08:11:04;;;;;;;14.48;6.10;;;16.40;99.90;;;;;;5031820;28;20559;-76
2023/05/11 08:13:30;;;;;;;17.17;6.32;;;16.10;99.90;;;;;;5030010;28;20709;-76
2023/05/11 08:15:56;;;;;;;9.13;5.25;;;16.10;99.90;;;;;;5032090;28;20037;-79
2023/05/11 08:18:22;;;;;;;8.93;5.18;;;16.10;99.90;;;;;;5031227;28;20029;-77
2023/05/11 08:20:47;;;;;;;9.45;5.22;;;16.00;99.90;;;;;;5032794;28;20563;-79
2023/05/11 08:23:16;;;;;;;10.25;5.60;;;16.00;99.90;;;;;;5030037;28;20025;-76
2023/05/11 08:25:54;;;;;;;10.65;6.40;;;16.00;99.90;;;;;;5032004;28;20041;-79
2023/05/11 08:28:20;;;;;;;13.38;5.47;;;15.90;99.90;;;;;;5031898;28;20053;-76
2023/05/11 08:30:52;;;;;;;9.52;5.68;;;15.90;99.90;;;;;;5031506;28;20039;-75
2023/05/11 08:33:18;;;;;;;9.63;5.30;;;15.80;99.90;;;;;;5032153;28;20095;-75
2023/05/11 08:35:43;;;;;;;9.23;5.22;;;15.70;99.90;;;;;;5031604;28;20469;-78
2023/05/11 08:38:09;;;;;;;10.05;6.00;;;15.70;99.90;;;;;;5031776;28;20034;-80
2023/05/11 08:40:35;;;;;;;12.38;6.57;;;15.60;99.90;;;;;;5022689;28;20030;-77
2023/05/11 08:43:04;;;;;;;7.93;5.45;;;15.70;99.90;;;;;;5029588;28;20112;-78
2023/05/11 08:45:33;;;;;;;8.98;5.75;;;15.60;99.90;;;;;;5030822;28;20034;-75
2023/05/11 08:47:59;;;;;;;10.00;5.95;;;15.70;99.90;;;;;;5032024;28;20421;-78
2023/05/11 08:50:25;;;;;;;9.52;6.00;;;15.70;99.90;;;;;;5031536;28;20069;-74
2023/05/11 08:52:51;;;;;;;13.00;6.22;;;15.80;99.90;;;;;;5030449;28;20112;-76
2023/05/11 08:55:17;;;;;;;11.65;6.53;;;15.80;99.90;;;;;;5031506;28;20113;-75
2023/05/11 08:57:45;;;;;;;9.90;5.32;;;15.80;99.90;;;;;;5031603;28;20017;-73
2023/05/11 09:00:12;;;;;;;10.15;6.32;;;15.90;99.90;;;;;;5047468;28;20029;-81
2023/05/11 09:02:38;;;;;;;11.98;6.65;;;16.10;99.90;;;;;;5031632;28;20022;-78
2023/05/11 09:05:04;;;;;;;10.93;6.32;;;16.10;99.90;;;;;;5031518;28;20032;-82
2023/05/11 09:07:34;;;;;;;9.52;5.80;;;16.20;99.90;;;;;;5029665;28;20025;-80
2023/05/11 09:10:00;;;;;;;10.32;6.15;;;16.30;99.90;;;;;;5031358;28;20077;-79
2023/05/11 09:12:27;;;;;;;8.35;5.35;;;16.40;99.90;;;;;;5031823;28;20022;-78
2023/05/11 09:14:53;;;;;;;17.17;5.70;;;16.50;99.90;;;;;;5031440;28;20072;-78
2023/05/11 09:17:19;;;;;;;17.45;6.03;;;16.60;99.90;;;;;;5027579;28;20460;-80
2023/05/11 09:20:04;;;;;;;17.30;6.15;;;16.70;99.90;;;;;;5031572;28;20071;-79
2023/05/11 09:22:39;;;;;;;12.93;6.25;;;16.80;99.90;;;;;;5030430;28;20104;-75
2023/05/11 09:25:05;;;;;;;8.13;5.15;;;16.90;99.90;;;;;;5028424;28;20025;-75
2023/05/11 09:27:31;;;;;;;7.50;5.22;;;17.00;99.90;;;;;;5021387;28;20052;-75
2023/05/11 09:30:13;;;;;;;8.43;5.32;;;17.20;99.90;;;;;;5033393;28;20034;-79
2023/05/11 09:32:59;;;;;;;12.57;5.23;;;17.30;99.90;;;;;;5034584;28;20036;-78
2023/05/11 09:35:27;;;;;;;9.90;5.25;;;17.40;99.90;;;;;;5032405;28;20097;-76
2023/05/11 09:38:08;;;;;;;9.43;5.72;;;17.40;99.30;;;;;;5033989;28;20037;-76
2023/05/11 09:40:51;;;;;;;10.70;6.00;;;17.60;99.90;;;;;;5031857;28;20443;-75
2023/05/11 09:43:29;;;;;;;11.20;5.57;;;17.60;99.90;;;;;;5032831;28;20025;-79
2023/05/11 09:46:03;;;;;;;10.27;6.28;;;17.50;99.50;;;;;;5034199;28;20037;-74
2023/05/11 09:48:31;;;;;;;8.38;5.30;;;17.40;98.60;;;;;;5034591;28;20100;-74
2023/05/11 09:51:04;;;;;;;10.85;5.70;;;17.50;99.80;;;;;;5034349;28;20033;-76
2023/05/11 09:53:44;;;;;;;10.60;6.15;;;17.50;98.70;;;;;;5034662;28;20061;-76
2023/05/11 09:56:14;;;;;;;11.82;6.22;;;17.50;99.20;;;;;;5034585;28;20083;-75
2023/05/11 09:58:53;;;;;;;11.23;5.82;;;17.50;98.20;;;;;;5034571;28;20466;-75
2023/05/11 10:01:33;;;;;;;14.63;6.85;;;17.50;98.40;;;;;;5015950;28;20057;-79
2023/05/11 10:04:01;;;;;;;14.52;6.10;;;17.40;97.80;;;;;;5029415;28;20037;-79
2023/05/11 10:06:41;;;;;;;10.60;6.07;;;17.50;99.20;;;;;;5034570;28;20369;-74
2023/05/11 10:09:08;;;;;;;21.17;6.75;;;17.40;98.50;;;;;;5032819;28;20132;-79
2023/05/11 10:11:34;;;;;;;10.48;5.88;;;17.60;99.60;;;;;;5034137;28;20045;-74
2023/05/11 10:14:01;;;;;;;9.65;5.78;;;17.50;98.70;;;;;;5034321;28;20392;-75
2023/05/11 10:16:27;;;;;;;12.52;6.05;;;17.60;99.30;;;;;;5029760;28;20026;-75
2023/05/11 10:18:53;;;;;;;8.93;5.20;;;17.60;99.50;;;;;;5034895;28;20457;-78
2023/05/11 10:21:19;;;;;;;13.05;6.95;;;17.70;99.90;;;;;;5033932;28;20017;-76
2023/05/11 10:23:45;;;;;;;13.57;6.32;;;17.70;99.90;;;;;;5034233;28;20095;-79
2023/05/11 10:26:12;;;;;;;11.48;5.68;;;17.60;99.90;;;;;;5032753;28;20473;-76
2023/05/11 10:28:38;;;;;;;11.82;5.65;;;17.50;99.90;;;;;;5034132;28;20025;-80
2023/05/11 10:31:05;;;;;;;13.80;6.65;;;17.30;99.90;;;;;;5033666;28;20033;-78
2023/05/11 10:33:33;;;;;;;11.98;6.85;;;17.20;99.90;;;;;;5033830;28;20520;-77
2023/05/11 10:35:59;;;;;;;10.98;6.60;;;17.20;99.90;;;;;;5034022;28;20021;-75
2023/05/11 10:38:25;;;;;;;13.85;6.65;;;16.90;99.90;;;;;;5033688;28;20048;-77
2023/05/11 10:40:56;;;;;;;12.02;6.65;;;16.80;99.90;;;;;;5020880;28;20026;-80
2023/05/11 10:43:53;;;;;;;18.45;6.97;;;16.80;99.90;;;;;;5033749;28;20459;-74
2023/05/11 10:46:24;;;;;;;13.88;6.50;;;16.60;99.90;;;;;;5047407;28;20048;-80
2023/05/11 10:48:59;;;;;;;12.93;6.47;;;16.70;99.90;;;;;;5042548;28;20021;-73
2023/05/11 10:51:36;;;;;;;12.75;6.68;;;16.70;99.90;;;;;;5023465;28;20535;-75
2023/05/11 10:54:33;;;;;;;12.13;7.50;;;16.70;99.90;;;;;;5012948;28;20057;-74
2023/05/11 10:57:18;;;;;;;12.55;7.20;;;16.80;99.90;;;;;;5020698;28;20030;-78
2023/05/11 11:00:08;;;;;;;15.68;7.53;;;16.80;99.90;;;;;;5033521;28;20057;-79
2023/05/11 11:02:34;;;;;;;13.48;7.20;;;16.80;99.90;;;;;;5033125;28;20029;-75
2023/05/11 11:05:06;;;;;;;13.63;6.93;;;16.60;99.90;;;;;;5032819;28;20025;-78
2023/05/11 11:07:59;;;;;;;11.27;6.40;;;16.60;99.90;;;;;;5032718;28;20033;-79
2023/05/11 11:10:32;;;;;;;17.90;7.55;;;16.40;99.90;;;;;;5038651;28;20465;-74
2023/05/11 11:13:18;;;;;;;13.48;6.00;;;16.40;99.90;;;;;;5040676;28;20050;-74
2023/05/11 11:15:53;;;;;;;13.65;7.32;;;16.40;99.90;;;;;;5033874;28;20087;-77
2023/05/11 11:18:22;;;;;;;11.07;6.70;;;16.40;99.90;;;;;;5048126;28;20025;-77
2023/05/11 11:20:50;;;;;;;13.90;7.15;;;16.40;99.90;;;;;;5032705;28;20056;-74
2023/05/11 11:23:48;;;;;;;14.25;6.72;;;16.40;99.90;;;;;;5032913;28;20052;-74
2023/05/11 11:26:54;;;;;;;14.82;6.88;;;16.20;99.90;;;;;;5032729;28;20041;-79
2023/05/11 11:29:20;;;;;;;17.92;7.75;;;16.20;99.90;;;;;;5032381;28;20119;-77
2023/05/11 11:31:46;;;;;;;14.70;6.85;;;16.10;99.90;;;;;;5032591;28;20065;-79
2023/05/11 11:34:27;;;;;;;12.57;7.22;;;16.00;99.90;;;;;;5033050;28;20026;-76
2023/05/11 11:37:02;;;;;;;15.18;7.20;;;15.90;99.90;;;;;;5020270;28;20504;-80
2023/05/11 11:39:59;;;;;;;12.85;8.00;;;15.90;99.90;;;;;;5034095;28;20029;-80
2023/05/11 11:42:36;;;;;;;12.13;7.80;;;15.80;99.90;;;;;;5032050;28;20087;-77
2023/05/11 11:45:25;;;;;;;13.43;6.85;;;15.90;99.90;;;;;;5027794;28;20389;-74
2023/05/11 11:48:09;;;;;;;10.05;6.72;;;15.80;99.90;;;;;;5015717;28;20029;-76
2023/05/11 11:50:35;;;;;;;10.85;7.28;;;15.70;99.90;;;;;;5015430;28;20038;-79
2023/05/11 11:53:01;;;;;;;12.73;7.28;;;15.80;99.90;;;;;;5010320;28;20020;-77
2023/05/11 11:55:49;;;;;;;14.65;8.77;;;15.70;99.90;;;;;;5015429;28;20107;-79
2023/05/11 11:58:50;;;;;;;11.38;7.45;;;15.60;99.90;;;;;;5027310;28;20033;-78
2023/05/11 12:01:23;;;;;;;14.60;7.97;;;15.40;99.90;;;;;;4993964;28;20038;-78
2023/05/11 12:04:09;;;;;;;;;;;15.40;99.90;;;;;;5010827;28;20099;-78
2023/05/11 12:06:38;;;;;;;13.93;8.13;;;15.20;99.90;;;;;;5010124;28;19944;-78
2023/05/11 12:09:04;;;;;;;15.93;9.52;;;15.10;99.90;;;;;;5004142;28;20141;-78
2023/05/11 12:11:32;;;;;;;13.57;8.32;;;15.00;99.90;;;;;;5010030;28;20042;-76
2023/05/11 12:14:02;;;;;;;12.13;7.72;;;15.00;99.90;;;;;;5010137;28;20088;-78
2023/05/11 12:16:28;;;;;;;14.75;9.23;;;15.10;99.90;;;;;;5016239;28;20501;-77
2023/05/11 12:18:57;;;;;;;16.00;9.73;;;15.00;99.90;;;;;;5022943;28;20073;-76
2023/05/11 12:21:28;;;;;;;14.35;8.15;;;15.00;99.90;;;;;;5010168;28;20058;-76
2023/05/11 12:23:55;;;;;;;15.80;8.98;;;15.00;99.90;;;;;;5009897;28;20096;-77
2023/05/11 12:26:23;;;;;;;15.20;8.98;;;14.90;99.90;;;;;;4990142;28;20030;-75
2023/05/11 12:28:49;;;;;;;14.68;8.50;;;14.80;99.90;;;;;;5009351;28;20077;-75
2023/05/11 12:31:19;;;;;;;13.13;8.65;;;14.60;99.90;;;;;;4996564;28;20042;-78
2023/05/11 12:33:48;;;;;;;17.30;9.60;;;14.60;99.90;;;;;;5002388;28;20113;-76
2023/05/11 12:36:15;;;;;;;15.40;8.43;;;14.60;99.90;;;;;;5019520;28;20065;-74
2023/05/11 12:38:45;;;;;;;16.85;10.10;;;14.50;99.90;;;;;;5024380;28;20055;-76
2023/05/11 12:41:20;;;;;;;16.17;8.85;;;14.50;99.90;;;;;;5017074;28;20469;-79
2023/05/11 12:43:46;;;;;;;14.05;8.35;;;14.40;99.90;;;;;;5044127;28;20025;-77
2023/05/11 12:46:12;;;;;;;16.77;9.07;;;14.40;99.90;;;;;;5031397;28;20017;-78
2023/05/11 12:48:38;;;;;;;16.00;9.32;;;14.50;99.90;;;;;;5033268;28;20030;-78
2023/05/11 12:51:04;;;;;;;14.80;8.90;;;14.50;99.90;;;;;;5013454;28;20478;-78
2023/05/11 12:53:37;;;;;;;14.25;8.70;;;14.40;99.90;;;;;;5033382;28;20037;-76
2023/05/11 12:56:03;;;;;;;17.50;9.75;;;14.40;99.90;;;;;;5035036;28;20569;-74